createdAt,value
2023-04-02T00:01:22.841Z,10.13
2023-04-02T00:03:54.158Z,10.07
2023-04-02T00:06:33.622Z,9.70
2023-04-02T00:09:29.996Z,9.55
2023-04-02T00:11:57.400Z,9.63
2023-04-02T00:14:33.403Z,9.63
2023-04-02T00:17:03.213Z,9.63
2023-04-02T00:19:51.887Z,9.81
2023-04-02T00:22:22.049Z,9.77
2023-04-02T00:24:54.565Z,9.82
2023-04-02T00:27:22.566Z,9.91
2023-04-02T00:29:58.215Z,9.94
2023-04-02T00:32:32.318Z,9.87
2023-04-02T00:35:00.205Z,9.89
2023-04-02T00:37:48.898Z,9.58
2023-04-02T00:40:31.785Z,9.40
2023-04-02T00:43:01.278Z,9.28
2023-04-02T00:45:33.344Z,9.41
2023-04-02T00:48:17.202Z,9.17
2023-04-02T00:50:46.049Z,9.07
2023-04-02T00:53:40.809Z,9.09
2023-04-02T00:56:28.555Z,8.69
2023-04-02T00:58:56.226Z,9.37
2023-04-02T01:01:34.397Z,9.34
2023-04-02T01:04:03.320Z,8.73
2023-04-02T01:06:38.476Z,9.17
2023-04-02T01:09:26.481Z,9.34
2023-04-02T01:12:21.379Z,9.40
2023-04-02T01:15:12.739Z,9.26
2023-04-02T01:17:58.617Z,9.55
2023-04-02T01:21:20.829Z,8.97
2023-04-02T01:24:24.819Z,9.17
2023-04-02T01:27:13.852Z,9.12
2023-04-02T01:29:48.620Z,8.87
2023-04-02T01:32:20.792Z,9.26
2023-04-02T01:34:50.770Z,9.19
2023-04-02T01:37:37.895Z,9.15
2023-04-02T01:40:35.790Z,9.19
2023-04-02T01:43:36.383Z,9.30
2023-04-02T01:46:26.065Z,9.38
2023-04-02T01:48:54.650Z,9.41
2023-04-02T01:51:33.543Z,9.38
2023-04-02T01:54:16.834Z,9.40
2023-04-02T01:56:58.130Z,9.55
2023-04-02T01:59:26.493Z,9.25
2023-04-02T02:02:04.642Z,9.57
2023-04-02T02:04:34.634Z,9.38
2023-04-02T02:07:02.888Z,9.44
2023-04-02T02:09:38.207Z,9.28
2023-04-02T02:12:05.767Z,9.20
2023-04-02T02:14:33.335Z,9.49
2023-04-02T02:17:02.798Z,9.57
2023-04-02T02:19:41.230Z,9.30
2023-04-02T02:22:12.289Z,9.04
2023-04-02T02:24:39.853Z,8.97
2023-04-02T02:27:28.315Z,9.38
2023-04-02T02:30:13.772Z,9.37
2023-04-02T02:33:00.032Z,9.38
2023-04-02T02:35:37.369Z,9.13
2023-04-02T02:38:35.392Z,8.98
2023-04-02T02:41:37.242Z,8.72
2023-04-02T02:44:11.195Z,8.69
2023-04-02T02:46:51.158Z,9.39
2023-04-02T02:49:25.798Z,9.43
2023-04-02T02:52:12.812Z,9.49
2023-04-02T02:55:11.846Z,9.38
2023-04-02T02:58:46.862Z,9.52
2023-04-02T03:01:52.880Z,9.33
2023-04-02T03:04:36.368Z,9.50
2023-04-02T03:07:11.717Z,9.16
2023-04-02T03:10:06.524Z,9.65
2023-04-02T03:12:47.414Z,9.69
2023-04-02T03:15:23.499Z,9.71
2023-04-02T03:18:32.067Z,9.75
2023-04-02T03:21:10.399Z,9.48
2023-04-02T03:23:44.030Z,9.89
2023-04-02T03:26:29.781Z,9.66
2023-04-02T03:29:04.921Z,9.36
2023-04-02T03:31:40.081Z,9.00
2023-04-02T03:34:41.765Z,10.01
2023-04-02T03:37:12.492Z,9.95
2023-04-02T03:39:48.258Z,9.80
2023-04-02T03:42:45.629Z,9.59
2023-04-02T03:45:27.116Z,9.37
2023-04-02T03:48:05.366Z,9.50
2023-04-02T03:50:58.740Z,9.39
2023-04-02T03:53:45.889Z,9.75
2023-04-02T03:56:44.128Z,9.54
2023-04-02T03:59:48.887Z,9.55
2023-04-02T04:02:26.387Z,9.53
2023-04-02T04:04:56.405Z,9.51
2023-04-02T04:07:41.524Z,9.60
2023-04-02T04:10:17.159Z,9.60
2023-04-02T04:12:48.507Z,9.83
2023-04-02T04:15:38.839Z,9.25
2023-04-02T04:18:40.512Z,9.23
2023-04-02T04:21:31.268Z,9.23
2023-04-02T04:24:20.405Z,9.65
2023-04-02T04:27:04.063Z,9.68
2023-04-02T04:29:40.806Z,9.68
2023-04-02T04:32:27.737Z,9.87
2023-04-02T04:35:06.334Z,9.93
2023-04-02T04:37:39.851Z,9.57
2023-04-02T04:40:24.405Z,9.97
2023-04-02T04:43:00.790Z,10.00
2023-04-02T04:45:52.680Z,9.91
2023-04-02T04:48:43.759Z,10.06
2023-04-02T04:51:20.467Z,9.55
2023-04-02T04:54:08.947Z,10.01
2023-04-02T04:56:57.876Z,9.32
2023-04-02T04:59:34.136Z,9.78
2023-04-02T05:02:27.984Z,9.71
2023-04-02T05:05:42.965Z,9.41
2023-04-02T05:08:30.613Z,9.82
2023-04-02T05:11:11.366Z,9.38
2023-04-02T05:13:51.236Z,9.43
2023-04-02T05:16:33.721Z,9.12
2023-04-02T05:19:14.339Z,9.39
2023-04-02T05:21:48.961Z,8.80
2023-04-02T05:24:48.636Z,9.44
2023-04-02T05:27:18.609Z,9.36
2023-04-02T05:29:49.883Z,9.43
2023-04-02T05:32:27.713Z,9.48
2023-04-02T05:34:57.451Z,9.38
2023-04-02T05:37:28.542Z,9.23
2023-04-02T05:39:58.572Z,9.41
2023-04-02T05:42:35.671Z,9.48
2023-04-02T05:45:14.228Z,9.52
2023-04-02T05:47:43.517Z,9.44
2023-04-02T05:50:24.876Z,9.29
2023-04-02T05:53:00.727Z,9.44
2023-04-02T05:55:56.933Z,9.24
2023-04-02T05:58:54.477Z,9.75
2023-04-02T06:02:07.395Z,9.88
2023-04-02T06:04:50.702Z,9.71
2023-04-02T06:07:32.668Z,9.13
2023-04-02T06:10:07.578Z,9.55
2023-04-02T06:13:03.256Z,9.71
2023-04-02T06:15:36.698Z,9.86
2023-04-02T06:18:17.212Z,9.74
2023-04-02T06:20:44.767Z,9.62
2023-04-02T06:23:15.863Z,10.37
2023-04-02T06:25:48.881Z,9.78
2023-04-02T06:28:21.534Z,9.71
2023-04-02T06:30:59.789Z,9.92
2023-04-02T06:33:29.399Z,10.00
2023-04-02T06:35:57.025Z,10.64
2023-04-02T06:38:31.444Z,10.94
2023-04-02T06:41:03.333Z,11.15
2023-04-02T06:43:44.537Z,10.90
2023-04-02T06:46:31.750Z,10.86
2023-04-02T06:49:18.500Z,10.95
2023-04-02T06:51:48.375Z,11.13
2023-04-02T06:54:36.119Z,10.94
2023-04-02T06:57:39.308Z,11.36
2023-04-02T07:00:34.353Z,11.51
2023-04-02T07:03:06.859Z,11.63
2023-04-02T07:05:34.986Z,11.53
2023-04-02T07:08:02.263Z,9.82
2023-04-02T07:10:29.182Z,8.99
2023-04-02T07:12:56.480Z,8.90
2023-04-02T07:15:25.520Z,9.00
2023-04-02T07:17:54.872Z,10.05
2023-04-02T07:20:31.653Z,10.81
2023-04-02T07:23:02.530Z,10.77
2023-04-02T07:25:29.981Z,11.35
2023-04-02T07:28:17.994Z,11.53
2023-04-02T07:30:58.847Z,11.75
2023-04-02T07:33:29.680Z,11.33
2023-04-02T07:35:58.185Z,12.29
2023-04-02T07:38:25.580Z,11.13
2023-04-02T07:40:52.674Z,10.84
2023-04-02T07:43:19.664Z,10.65
2023-04-02T07:45:46.633Z,10.29
2023-04-02T07:48:14.694Z,10.69
2023-04-02T07:50:42.287Z,10.31
2023-04-02T07:53:41.024Z,11.29
2023-04-02T07:56:23.770Z,11.09
2023-04-02T07:58:50.989Z,10.88
2023-04-02T08:01:24.693Z,12.21
2023-04-02T08:03:54.462Z,12.53
2023-04-02T08:06:22.603Z,13.39
2023-04-02T08:08:50.117Z,13.17
2023-04-02T08:11:17.334Z,13.03
2023-04-02T08:13:44.698Z,13.69
2023-04-02T08:16:11.843Z,13.07
2023-04-02T08:18:39.316Z,13.38
2023-04-02T08:21:08.846Z,14.43
2023-04-02T08:23:37.198Z,14.17
2023-04-02T08:26:06.143Z,14.68
2023-04-02T08:28:33.068Z,13.15
2023-04-02T08:31:00.243Z,13.58
2023-04-02T08:33:27.910Z,13.27
2023-04-02T08:35:55.012Z,14.07
2023-04-02T08:38:22.410Z,14.68
2023-04-02T08:40:52.446Z,14.94
2023-04-02T08:43:25.212Z,15.88
2023-04-02T08:46:07.269Z,16.36
2023-04-02T08:48:37.154Z,16.64
2023-04-02T08:51:06.256Z,17.28
2023-04-02T08:53:54.155Z,17.47
2023-04-02T08:57:05.104Z,17.48
2023-04-02T08:59:46.014Z,15.74
2023-04-02T09:02:13.161Z,16.59
2023-04-02T09:04:41.764Z,16.13
2023-04-02T09:07:14.445Z,16.73
2023-04-02T09:09:41.857Z,17.37
2023-04-02T09:12:26.817Z,17.48
2023-04-02T09:14:53.716Z,16.25
2023-04-02T09:17:23.475Z,16.04
2023-04-02T09:20:02.366Z,15.46
2023-04-02T09:22:35.228Z,15.57
2023-04-02T09:25:05.818Z,16.03
2023-04-02T09:27:53.088Z,16.63
2023-04-02T09:30:51.368Z,16.75
2023-04-02T09:33:19.409Z,16.82
2023-04-02T09:35:49.455Z,16.35
2023-04-02T09:38:30.901Z,16.51
2023-04-02T09:40:59.899Z,17.00
2023-04-02T09:43:28.409Z,17.29
2023-04-02T09:46:19.190Z,17.25
2023-04-02T09:49:15.984Z,16.65
2023-04-02T09:51:42.978Z,17.38
2023-04-02T09:54:30.106Z,17.87
2023-04-02T09:57:28.128Z,18.38
2023-04-02T10:02:46.365Z,17.10
2023-04-02T10:05:36.880Z,17.19
2023-04-02T10:08:09.037Z,17.23
2023-04-02T10:10:42.982Z,18.24
2023-04-02T10:13:22.988Z,18.09
2023-04-02T10:15:53.775Z,18.33
2023-04-02T10:18:42.349Z,17.73
2023-04-02T10:21:13.771Z,18.53
2023-04-02T10:23:40.753Z,18.57
2023-04-02T10:26:32.495Z,17.81
2023-04-02T10:29:11.414Z,17.59
2023-04-02T10:31:47.587Z,16.79
2023-04-02T10:34:25.255Z,16.68
2023-04-02T10:36:59.531Z,17.32
2023-04-02T10:39:41.491Z,16.81
2023-04-02T10:42:17.944Z,17.05
2023-04-02T10:44:52.643Z,17.15
2023-04-02T10:47:22.586Z,16.85
2023-04-02T10:50:08.278Z,17.27
2023-04-02T10:52:43.438Z,16.94
2023-04-02T10:55:34.385Z,17.91
2023-04-02T10:58:45.143Z,17.73
2023-04-02T11:01:29.810Z,18.24
2023-04-02T11:04:08.401Z,18.10
2023-04-02T11:07:13.747Z,18.55
2023-04-02T11:09:45.714Z,18.56
2023-04-02T11:12:43.403Z,17.56
2023-04-02T11:15:19.160Z,18.61
2023-04-02T11:17:46.933Z,19.07
2023-04-02T11:20:48.309Z,18.37
2023-04-02T11:23:18.845Z,18.54
2023-04-02T11:25:47.318Z,18.95
2023-04-02T11:28:20.515Z,19.38
2023-04-02T11:30:48.757Z,18.73
2023-04-02T11:33:38.217Z,19.36
2023-04-02T11:36:51.015Z,18.97
2023-04-02T11:39:55.219Z,18.27
2023-04-02T11:42:46.624Z,17.73
2023-04-02T11:45:40.186Z,18.02
2023-04-02T11:48:51.192Z,17.81
2023-04-02T11:51:31.744Z,18.44
2023-04-02T11:54:37.559Z,18.25
2023-04-02T11:57:28.311Z,17.76
2023-04-02T12:00:28.950Z,18.76
2023-04-02T12:03:17.346Z,18.92
2023-04-02T12:05:54.863Z,18.31
2023-04-02T12:08:31.246Z,18.04
2023-04-02T12:11:02.824Z,17.95
2023-04-02T12:13:42.150Z,17.04
2023-04-02T12:16:12.632Z,17.50
2023-04-02T12:18:53.995Z,17.39
2023-04-02T12:21:26.830Z,17.27
2023-04-02T12:23:57.811Z,17.69
2023-04-02T12:26:27.673Z,17.60
2023-04-02T12:28:56.379Z,16.88
2023-04-02T12:31:25.376Z,17.57
2023-04-02T12:33:53.148Z,17.36
2023-04-02T12:36:22.520Z,17.30
2023-04-02T12:38:51.997Z,17.26
2023-04-02T12:41:32.126Z,17.26
2023-04-02T12:44:11.638Z,17.38
2023-04-02T12:46:39.318Z,16.57
2023-04-02T12:49:07.936Z,17.34
2023-04-02T12:51:38.692Z,16.55
2023-04-02T12:54:30.225Z,17.06
2023-04-02T12:57:40.362Z,17.11
2023-04-02T13:00:21.120Z,17.11
2023-04-02T13:02:52.274Z,17.05
2023-04-02T13:05:44.179Z,16.83
2023-04-02T13:08:25.165Z,16.77
2023-04-02T13:10:55.785Z,17.12
2023-04-02T13:13:27.986Z,17.15
2023-04-02T13:16:26.223Z,17.26
2023-04-02T13:19:10.168Z,17.42
2023-04-02T13:21:37.404Z,16.87
2023-04-02T13:24:04.593Z,17.23
2023-04-02T13:26:31.697Z,17.31
2023-04-02T13:29:10.945Z,17.26
2023-04-02T13:31:37.936Z,16.93
2023-04-02T13:34:05.039Z,17.08
2023-04-02T13:36:32.090Z,17.24
2023-04-02T13:38:59.060Z,16.84
2023-04-02T13:41:32.111Z,17.08
2023-04-02T13:44:02.085Z,17.63
2023-04-02T13:46:49.242Z,17.65
2023-04-02T13:49:31.711Z,17.56
2023-04-02T13:52:06.470Z,17.65
2023-04-02T13:54:59.306Z,17.94
2023-04-02T13:58:00.303Z,17.64
2023-04-02T14:00:41.192Z,17.71
2023-04-02T14:03:18.848Z,18.04
2023-04-02T14:05:58.369Z,17.33
2023-04-02T14:08:46.703Z,18.04
2023-04-02T14:11:41.423Z,17.98
2023-04-02T14:14:39.956Z,17.78
2023-04-02T14:17:25.893Z,17.74
2023-04-02T14:20:08.780Z,17.17
2023-04-02T14:22:36.030Z,17.70
2023-04-02T14:25:30.662Z,17.36
2023-04-02T14:28:00.915Z,18.04
2023-04-02T14:30:43.853Z,17.19
2023-04-02T14:33:26.745Z,18.11
2023-04-02T14:36:06.449Z,17.82
2023-04-02T14:38:48.482Z,18.68
2023-04-02T14:41:26.760Z,18.53
2023-04-02T14:44:07.193Z,17.69
2023-04-02T14:46:37.711Z,18.37
2023-04-02T14:49:25.650Z,18.64
2023-04-02T14:52:10.843Z,18.84
2023-04-02T14:55:12.933Z,19.39
2023-04-02T14:57:54.965Z,19.47
2023-04-02T15:00:34.194Z,19.87
2023-04-02T15:03:24.297Z,19.55
2023-04-02T15:05:59.698Z,19.86
2023-04-02T15:09:08.278Z,20.06
2023-04-02T15:11:41.236Z,19.82
2023-04-02T15:14:38.466Z,19.99
2023-04-02T15:17:09.825Z,20.37
2023-04-02T15:19:36.840Z,20.25
2023-04-02T15:22:58.296Z,19.65
2023-04-02T15:25:41.943Z,20.06
2023-04-02T15:28:26.617Z,19.59
2023-04-02T15:30:59.937Z,19.87
2023-04-02T15:33:43.022Z,19.96
2023-04-02T15:36:32.811Z,20.05
2023-04-02T15:39:28.945Z,19.29
2023-04-02T15:42:01.690Z,19.50
2023-04-02T15:44:28.695Z,18.83
2023-04-02T15:47:10.367Z,18.89
2023-04-02T15:49:54.729Z,17.93
2023-04-02T15:52:33.475Z,18.02
2023-04-02T15:55:39.341Z,17.65
2023-04-02T15:59:19.677Z,17.85
2023-04-02T16:02:45.489Z,18.11
2023-04-02T16:05:54.121Z,18.38
2023-04-02T16:08:39.893Z,17.91
2023-04-02T16:11:12.228Z,18.43
2023-04-02T16:13:41.685Z,18.13
2023-04-02T16:16:35.258Z,18.03
2023-04-02T16:19:33.558Z,18.61
2023-04-02T16:22:12.376Z,18.53
2023-04-02T16:24:41.181Z,18.05
2023-04-02T16:27:17.100Z,18.47
2023-04-02T16:29:56.720Z,18.57
2023-04-02T16:32:37.656Z,18.49
2023-04-02T16:35:42.745Z,18.41
2023-04-02T16:38:32.092Z,18.34
2023-04-02T16:41:19.882Z,17.91
2023-04-02T16:43:57.118Z,17.93
2023-04-02T16:46:40.591Z,17.50
2023-04-02T16:49:29.753Z,17.37
2023-04-02T16:52:09.159Z,17.68
2023-04-02T16:55:17.605Z,17.77
2023-04-02T16:58:30.193Z,17.65
2023-04-02T17:01:08.638Z,17.59
2023-04-02T17:03:57.110Z,17.41
2023-04-02T17:06:47.816Z,17.34
2023-04-02T17:09:22.637Z,17.29
2023-04-02T17:11:54.718Z,16.50
2023-04-02T17:14:29.692Z,17.05
2023-04-02T17:17:01.899Z,17.05
2023-04-02T17:19:49.712Z,16.49
2023-04-02T17:22:50.516Z,16.36
2023-04-02T17:25:37.459Z,16.45
2023-04-02T17:28:12.793Z,16.50
2023-04-02T17:30:49.321Z,15.80
2023-04-02T17:33:18.977Z,16.32
2023-04-02T17:35:57.985Z,16.21
2023-04-02T17:39:12.910Z,16.04
2023-04-02T17:41:43.046Z,16.01
2023-04-02T17:44:16.585Z,15.87
2023-04-02T17:47:08.625Z,15.83
2023-04-02T17:50:06.817Z,15.70
2023-04-02T17:52:46.301Z,15.40
2023-04-02T17:55:51.399Z,15.50
2023-04-02T17:58:44.071Z,15.42
2023-04-02T18:01:56.436Z,15.40
2023-04-02T18:05:14.971Z,15.24
2023-04-02T18:08:21.418Z,14.98
2023-04-02T18:11:52.590Z,14.76
2023-04-02T18:14:47.387Z,14.87
2023-04-02T18:17:38.812Z,14.92
2023-04-02T18:20:26.337Z,14.92
2023-04-02T18:23:06.255Z,14.65
2023-04-02T18:25:48.689Z,14.79
2023-04-02T18:28:37.842Z,14.35
2023-04-02T18:31:20.316Z,13.97
2023-04-02T18:33:57.473Z,14.08
2023-04-02T18:36:39.560Z,14.15
2023-04-02T18:39:28.622Z,14.32
2023-04-02T18:42:28.799Z,14.21
2023-04-02T18:45:02.689Z,13.99
2023-04-02T18:47:54.887Z,14.10
2023-04-02T18:50:34.054Z,13.19
2023-04-02T18:53:38.117Z,13.78
2023-04-02T18:56:38.561Z,13.75
2023-04-02T18:59:34.309Z,13.39
2023-04-02T19:02:22.465Z,13.56
2023-04-02T19:05:23.339Z,13.95
2023-04-02T19:08:01.423Z,13.98
2023-04-02T19:10:28.591Z,13.97
2023-04-02T19:12:55.964Z,13.50
2023-04-02T19:15:30.413Z,13.97
2023-04-02T19:18:08.750Z,13.92
2023-04-02T19:21:21.602Z,13.85
2023-04-02T19:24:41.536Z,13.73
2023-04-02T19:27:19.782Z,13.72
2023-04-02T19:29:59.640Z,13.41
2023-04-02T19:32:51.466Z,13.58
2023-04-02T19:35:18.477Z,13.56
2023-04-02T19:38:31.221Z,13.38
2023-04-02T19:41:10.923Z,13.53
2023-04-02T19:43:38.338Z,13.51
2023-04-02T19:46:05.692Z,13.54
2023-04-02T19:49:26.480Z,12.93
2023-04-02T19:51:53.736Z,13.06
2023-04-02T19:54:41.327Z,13.84
2023-04-02T19:57:22.348Z,13.81
2023-04-02T19:59:49.975Z,13.33
2023-04-02T20:02:18.624Z,13.50
2023-04-02T20:04:45.965Z,13.01
2023-04-02T20:07:27.897Z,13.70
2023-04-02T20:10:29.004Z,13.64
2023-04-02T20:16:15.142Z,13.55
2023-04-02T20:18:42.409Z,13.31
2023-04-02T20:21:10.545Z,13.77
2023-04-02T20:23:37.640Z,13.84
2023-04-02T20:26:05.474Z,13.86
2023-04-02T20:28:32.765Z,13.68
2023-04-02T20:31:17.790Z,13.95
2023-04-02T20:33:45.102Z,13.14
2023-04-02T20:36:16.927Z,13.85
2023-04-02T20:38:45.784Z,13.79
2023-04-02T20:41:15.651Z,13.38
2023-04-02T20:43:42.962Z,13.51
2023-04-02T20:46:12.246Z,13.49
2023-04-02T20:48:40.530Z,13.32
2023-04-02T20:51:09.143Z,12.95
2023-04-02T20:53:56.555Z,13.12
2023-04-02T20:56:37.170Z,12.78
2023-04-02T20:59:04.055Z,12.69
2023-04-02T21:01:31.401Z,12.36
2023-04-02T21:04:01.076Z,12.93
2023-04-02T21:06:30.915Z,12.70
2023-04-02T21:08:58.092Z,12.58
2023-04-02T21:11:25.107Z,12.15
2023-04-02T21:13:52.985Z,12.46
2023-04-02T21:16:29.108Z,12.63
2023-04-02T21:19:00.945Z,12.56
2023-04-02T21:21:29.043Z,12.63
2023-04-02T21:24:01.425Z,12.72
2023-04-02T21:26:31.864Z,12.71
2023-04-02T21:29:00.679Z,12.37
2023-04-02T21:31:30.060Z,12.57
2023-04-02T21:33:58.848Z,12.58
2023-04-02T21:36:32.433Z,12.58
2023-04-02T21:39:11.725Z,12.67
2023-04-02T21:41:41.814Z,12.45
2023-04-02T21:44:12.325Z,12.55
2023-04-02T21:46:42.650Z,12.22
2023-04-02T21:49:12.223Z,12.51
2023-04-02T21:51:41.467Z,12.20
2023-04-02T21:54:28.505Z,12.28
2023-04-02T21:57:29.583Z,11.81
2023-04-02T22:00:12.410Z,12.01
2023-04-02T22:02:39.637Z,12.35
2023-04-02T22:05:07.235Z,12.44
2023-04-02T22:07:34.198Z,12.63
2023-04-02T22:10:01.157Z,12.48
2023-04-02T22:12:28.143Z,11.86
2023-04-02T22:14:55.335Z,11.76
2023-04-02T22:17:22.394Z,12.13
2023-04-02T22:19:49.326Z,12.30
2023-04-02T22:22:16.324Z,12.15
2023-04-02T22:24:43.289Z,12.33
2023-04-02T22:27:10.202Z,12.35
2023-04-02T22:29:37.218Z,11.89
2023-04-02T22:32:04.237Z,12.08
2023-04-02T22:34:31.434Z,12.05
2023-04-02T22:36:58.515Z,11.62
2023-04-02T22:39:25.620Z,11.46
2023-04-02T22:41:52.554Z,11.62
2023-04-02T22:44:19.454Z,11.63
2023-04-02T22:46:46.640Z,11.66
2023-04-02T22:49:19.199Z,11.95
2023-04-02T22:51:46.752Z,11.63
2023-04-02T22:54:33.655Z,11.66
2023-04-02T22:57:14.380Z,11.27
2023-04-02T22:59:41.467Z,11.20
2023-04-02T23:02:08.453Z,11.14
2023-04-02T23:04:35.628Z,11.27
2023-04-02T23:07:02.714Z,11.22
2023-04-02T23:09:29.700Z,11.60
2023-04-02T23:12:17.590Z,10.92
2023-04-02T23:15:18.636Z,10.98
2023-04-02T23:18:00.163Z,10.90
2023-04-02T23:20:27.123Z,10.79
2023-04-02T23:22:54.044Z,10.95
2023-04-02T23:25:21.207Z,10.56
2023-04-02T23:27:48.528Z,10.62
2023-04-02T23:30:15.687Z,10.92
2023-04-02T23:32:43.006Z,10.99
2023-04-02T23:35:10.219Z,10.90
2023-04-02T23:37:37.250Z,10.71
2023-04-02T23:40:04.822Z,10.55
2023-04-02T23:42:31.737Z,10.32
2023-04-02T23:44:58.576Z,10.69
2023-04-02T23:47:25.651Z,10.50
2023-04-02T23:49:52.623Z,10.67
2023-04-02T23:52:19.517Z,10.60
2023-04-02T23:55:06.688Z,10.25
2023-04-02T23:57:47.282Z,10.35
